createdAt,value
2022-10-22T04:56:05.762Z,14.10
2022-10-22T04:56:18.115Z,17.20
2022-10-22T04:57:10.825Z,16.90
2022-10-22T04:58:10.692Z,15.60
2022-10-22T04:59:10.485Z,16.80
2022-10-22T05:00:10.478Z,17.60
2022-10-22T05:01:10.506Z,18.30
2022-10-22T05:02:10.428Z,18.50
2022-10-22T05:03:10.420Z,17.10
2022-10-22T05:04:10.647Z,16.20
2022-10-22T05:05:10.398Z,16.20
2022-10-22T05:06:10.422Z,15.40
2022-10-22T05:07:10.368Z,16.20
2022-10-22T05:08:10.368Z,16.10
2022-10-22T05:09:10.382Z,15.80
2022-10-22T05:10:11.292Z,16.50
2022-10-22T05:11:11.270Z,15.60
2022-10-22T05:12:10.305Z,15.30
2022-10-22T05:13:10.280Z,17.60
2022-10-22T05:14:10.300Z,16.60
2022-10-22T05:15:10.270Z,16.40
2022-10-22T05:16:10.264Z,16.10
2022-10-22T05:17:10.231Z,15.60
2022-10-22T05:18:10.228Z,15.70
2022-10-22T05:19:10.212Z,15.50
2022-10-22T05:20:10.226Z,17.20
2022-10-22T05:21:10.191Z,14.70
2022-10-22T05:22:10.177Z,16.20
2022-10-22T05:23:10.162Z,16.70
2022-10-22T05:24:10.164Z,15.40
2022-10-22T05:25:10.141Z,17.40
2022-10-22T05:26:10.114Z,14.40
2022-10-22T05:27:10.142Z,15.20
2022-10-22T05:28:10.103Z,15.70
2022-10-22T05:29:10.095Z,15.70
2022-10-22T05:30:10.066Z,15.80
2022-10-22T05:31:10.053Z,15.90
2022-10-22T05:32:10.055Z,16.20
2022-10-22T05:33:10.038Z,15.60
2022-10-22T05:34:10.033Z,15.10
2022-10-22T05:35:10.262Z,15.30
2022-10-22T05:36:09.998Z,15.30
2022-10-22T05:37:09.976Z,14.80
2022-10-22T05:38:09.971Z,14.00
2022-10-22T05:39:09.964Z,15.20
2022-10-22T05:40:19.130Z,15.10
2022-10-22T05:41:10.935Z,15.40
2022-10-22T05:42:09.917Z,15.50
2022-10-22T05:43:09.901Z,15.20
2022-10-22T05:44:09.910Z,15.30
2022-10-22T05:45:09.879Z,14.60
2022-10-22T05:46:09.863Z,14.20
2022-10-22T05:47:09.850Z,16.70
2022-10-22T05:48:09.854Z,14.00
2022-10-22T05:49:09.820Z,14.90
2022-10-22T05:50:09.809Z,18.90
2022-10-22T05:51:09.793Z,15.80
2022-10-22T05:52:09.782Z,16.10
2022-10-22T05:53:09.762Z,16.10
2022-10-22T05:54:09.765Z,16.80
2022-10-22T05:55:09.732Z,23.30
2022-10-22T05:56:09.723Z,17.80
2022-10-22T05:57:09.713Z,17.10
2022-10-22T05:58:09.708Z,16.20
2022-10-22T05:59:09.705Z,16.40
2022-10-22T06:00:11.716Z,15.80
2022-10-22T06:01:09.684Z,17.00
2022-10-22T06:02:09.703Z,16.10
2022-10-22T06:03:09.635Z,17.60
2022-10-22T06:04:09.636Z,15.80
2022-10-22T06:05:09.607Z,15.10
2022-10-22T06:06:09.596Z,14.90
2022-10-22T06:07:09.577Z,16.40
2022-10-22T06:08:09.568Z,14.90
2022-10-22T06:09:09.600Z,15.50
2022-10-22T06:10:09.573Z,15.50
2022-10-22T06:11:09.567Z,14.50
2022-10-22T06:12:09.517Z,15.70
2022-10-22T06:13:09.505Z,16.10
2022-10-22T06:14:09.499Z,15.00
2022-10-22T06:15:09.469Z,17.30
2022-10-22T06:16:09.469Z,14.00
2022-10-22T06:17:09.450Z,14.70
2022-10-22T06:18:10.388Z,14.40
2022-10-22T06:19:09.559Z,14.40
2022-10-22T06:20:09.414Z,14.30
2022-10-22T06:21:09.403Z,13.50
2022-10-22T06:22:09.691Z,16.70
2022-10-22T06:23:09.372Z,14.50
2022-10-22T06:24:09.368Z,22.00
2022-10-22T06:25:09.352Z,13.50
2022-10-22T06:26:09.333Z,14.30
2022-10-22T06:27:09.320Z,14.30
2022-10-22T06:28:09.304Z,13.60
2022-10-22T06:29:09.373Z,13.70
2022-10-22T06:30:09.275Z,13.70
2022-10-22T06:31:09.262Z,13.90
2022-10-22T06:32:09.255Z,12.80
2022-10-22T06:33:09.234Z,13.30
2022-10-22T06:34:09.239Z,14.40
2022-10-22T06:35:09.206Z,12.30
2022-10-22T06:36:09.194Z,12.30
2022-10-22T06:37:09.204Z,14.40
2022-10-22T06:38:09.186Z,13.60
2022-10-22T06:39:09.166Z,12.70
2022-10-22T06:40:09.150Z,12.20
2022-10-22T06:41:09.137Z,14.10
2022-10-22T06:42:09.129Z,16.70
2022-10-22T06:43:09.109Z,12.50
2022-10-22T06:44:09.118Z,13.70
2022-10-22T06:45:09.070Z,11.70
2022-10-22T06:46:09.078Z,12.10
2022-10-22T06:47:09.049Z,15.40
2022-10-22T06:48:09.050Z,13.80
2022-10-22T06:49:09.029Z,13.80
2022-10-22T06:50:09.020Z,13.30
2022-10-22T06:51:09.000Z,11.90
2022-10-22T06:52:08.989Z,12.90
2022-10-22T06:53:09.024Z,11.80
2022-10-22T06:54:08.961Z,15.50
2022-10-22T06:55:08.941Z,17.60
2022-10-22T06:56:08.933Z,11.90
2022-10-22T06:57:08.926Z,13.00
2022-10-22T06:58:08.912Z,12.50
2022-10-22T06:59:08.899Z,16.70
2022-10-22T07:00:08.873Z,20.40
2022-10-22T07:01:08.911Z,14.50
2022-10-22T07:02:08.863Z,16.00
2022-10-22T07:03:08.851Z,14.40
2022-10-22T07:04:08.842Z,14.90
2022-10-22T07:05:08.805Z,14.00
2022-10-22T07:06:08.802Z,15.60
2022-10-22T07:07:08.797Z,13.50
2022-10-22T07:08:08.815Z,12.70
2022-10-22T07:09:08.929Z,12.50
2022-10-22T07:10:08.743Z,13.30
2022-10-22T07:11:08.732Z,13.40
2022-10-22T07:12:08.741Z,12.70
2022-10-22T07:13:08.743Z,12.40
2022-10-22T07:14:08.729Z,12.80
2022-10-22T07:15:08.773Z,13.60
2022-10-22T07:16:08.677Z,15.90
2022-10-22T07:17:08.658Z,14.60
2022-10-22T07:18:08.658Z,12.90
2022-10-22T07:19:08.636Z,12.40
2022-10-22T07:20:08.628Z,12.70
2022-10-22T07:21:08.637Z,13.40
2022-10-22T07:22:08.624Z,12.30
2022-10-22T07:23:08.607Z,12.80
2022-10-22T07:24:08.601Z,15.70
2022-10-22T07:25:08.576Z,12.30
2022-10-22T07:26:08.575Z,13.10
2022-10-22T07:27:10.943Z,16.10
2022-10-22T07:28:08.519Z,12.90
2022-10-22T07:29:08.562Z,17.40
2022-10-22T07:30:09.449Z,16.60
2022-10-22T07:31:08.471Z,13.00
2022-10-22T07:32:08.462Z,21.40
2022-10-22T07:33:08.452Z,13.90
2022-10-22T07:34:08.506Z,13.80
2022-10-22T07:35:08.427Z,11.40
2022-10-22T07:36:08.413Z,11.50
2022-10-22T07:37:08.397Z,14.00
2022-10-22T07:38:08.390Z,11.50
2022-10-22T07:39:08.374Z,12.00
2022-10-22T07:40:08.364Z,12.40
2022-10-22T07:41:08.342Z,13.10
2022-10-22T07:42:08.336Z,12.10
2022-10-22T07:43:08.351Z,11.60
2022-10-22T07:44:08.307Z,18.20
2022-10-22T07:45:08.286Z,10.00
2022-10-22T07:46:08.277Z,9.30
2022-10-22T07:47:08.267Z,8.10
2022-10-22T07:48:08.271Z,8.20
2022-10-22T07:49:08.237Z,7.20
2022-10-22T07:50:08.230Z,7.20
2022-10-22T07:51:08.209Z,6.90
2022-10-22T07:52:08.208Z,9.20
2022-10-22T07:53:08.198Z,7.90
2022-10-22T07:54:08.179Z,5.90
2022-10-22T07:55:08.159Z,6.10
2022-10-22T07:56:08.150Z,5.40
2022-10-22T07:57:08.149Z,5.60
2022-10-22T07:58:08.163Z,5.80
2022-10-22T07:59:08.110Z,5.30
2022-10-22T08:00:08.101Z,8.60
2022-10-22T08:01:08.149Z,4.40
2022-10-22T08:02:08.077Z,9.00
2022-10-22T08:03:08.070Z,4.80
2022-10-22T08:04:08.042Z,7.00
2022-10-22T08:05:08.025Z,7.70
2022-10-22T08:06:08.013Z,4.70
2022-10-22T08:07:08.005Z,5.20
2022-10-22T08:08:08.004Z,5.30
2022-10-22T08:09:08.008Z,4.20
2022-10-22T08:10:07.966Z,3.60
2022-10-22T08:11:07.954Z,10.20
2022-10-22T08:12:07.956Z,3.60
2022-10-22T08:13:07.935Z,24.70
2022-10-22T08:14:07.915Z,3.70
2022-10-22T08:15:07.895Z,3.80
2022-10-22T08:16:07.895Z,4.60
2022-10-22T08:17:07.874Z,4.00
2022-10-22T08:18:07.866Z,2.90
2022-10-22T08:19:07.846Z,3.40
2022-10-22T08:20:07.837Z,5.20
2022-10-22T08:21:07.822Z,2.90
2022-10-22T08:22:07.808Z,3.00
2022-10-22T08:23:07.797Z,3.20
2022-10-22T08:25:07.792Z,9.50
2022-10-22T08:26:07.750Z,5.30
2022-10-22T08:27:07.759Z,3.70
2022-10-22T08:28:07.731Z,8.60
2022-10-22T08:29:07.709Z,2.70
2022-10-22T08:30:07.707Z,3.30
2022-10-22T08:31:07.743Z,6.50
2022-10-22T08:32:07.681Z,2.40
2022-10-22T08:33:07.710Z,5.50
2022-10-22T08:34:07.641Z,2.60
2022-10-22T08:35:07.631Z,6.10
2022-10-22T08:36:07.617Z,3.90
2022-10-22T08:37:08.579Z,11.20
2022-10-22T08:38:07.592Z,2.50
2022-10-22T08:39:07.581Z,2.10
2022-10-22T08:40:08.522Z,5.10
2022-10-22T08:41:07.643Z,2.30
2022-10-22T08:42:07.556Z,2.50
2022-10-22T08:43:07.525Z,2.50
2022-10-22T08:44:07.514Z,2.50
2022-10-22T08:45:07.514Z,2.30
2022-10-22T08:46:07.516Z,6.70
2022-10-22T08:47:07.477Z,4.00
2022-10-22T08:48:07.455Z,2.50
2022-10-22T08:50:07.450Z,3.50
2022-10-22T08:51:07.418Z,4.10
2022-10-22T08:52:07.426Z,2.70
2022-10-22T08:53:07.418Z,3.30
2022-10-22T08:54:07.416Z,3.00
2022-10-22T08:55:07.368Z,3.30
2022-10-22T08:56:07.355Z,3.40
2022-10-22T08:57:07.348Z,3.30
2022-10-22T08:58:07.352Z,3.10
2022-10-22T08:59:07.309Z,3.40
2022-10-22T09:00:07.300Z,4.20
2022-10-22T09:01:07.292Z,3.60
2022-10-22T09:02:07.297Z,3.70
2022-10-22T09:03:07.259Z,3.30
2022-10-22T09:04:07.261Z,3.30
2022-10-22T09:05:11.491Z,3.90
2022-10-22T09:06:08.232Z,3.80
2022-10-22T09:07:07.212Z,4.70
2022-10-22T09:08:07.202Z,3.30
2022-10-22T09:09:07.247Z,3.00
2022-10-22T09:10:07.180Z,9.70
2022-10-22T09:11:07.153Z,2.80
2022-10-22T09:12:07.155Z,3.10
2022-10-22T09:13:07.135Z,2.70
2022-10-22T09:14:07.145Z,4.00
2022-10-22T09:15:07.095Z,2.90
2022-10-22T09:16:07.094Z,12.70
2022-10-22T09:17:07.084Z,7.50
2022-10-22T09:18:07.083Z,11.20
2022-10-22T09:19:07.042Z,14.10
2022-10-22T09:20:07.045Z,15.90
2022-10-22T09:21:07.015Z,17.40
2022-10-22T09:22:07.017Z,23.90
2022-10-22T09:23:06.991Z,22.00
2022-10-22T09:24:06.987Z,24.70
2022-10-22T09:25:06.978Z,22.00
2022-10-22T09:26:06.947Z,16.10
2022-10-22T09:27:06.957Z,15.30
2022-10-22T09:28:06.918Z,15.10
2022-10-22T09:29:06.926Z,8.90
2022-10-22T09:30:06.899Z,8.10
2022-10-22T09:31:06.899Z,7.60
2022-10-22T09:32:06.870Z,8.10
2022-10-22T09:33:06.889Z,13.00
2022-10-22T09:34:06.870Z,12.70
2022-10-22T09:35:06.832Z,9.10
2022-10-22T09:36:06.822Z,7.00
2022-10-22T09:37:06.801Z,5.10
2022-10-22T09:38:06.800Z,4.70
2022-10-22T09:39:06.827Z,4.40
2022-10-22T09:40:06.755Z,4.30
2022-10-22T09:41:06.761Z,3.60
2022-10-22T09:42:06.732Z,3.80
2022-10-22T09:43:06.723Z,4.00
2022-10-22T09:44:06.703Z,6.30
2022-10-22T09:45:06.704Z,4.30
2022-10-22T09:46:06.689Z,3.70
2022-10-22T09:47:06.675Z,3.20
2022-10-22T09:48:06.663Z,3.50
2022-10-22T09:49:06.645Z,4.40
2022-10-22T09:50:07.594Z,4.10
2022-10-22T09:51:07.576Z,3.40
2022-10-22T09:52:06.605Z,4.60
2022-10-22T09:53:06.587Z,10.50
2022-10-22T09:54:06.586Z,32.40
2022-10-22T09:55:06.571Z,209.50
2022-10-22T09:56:06.565Z,530.70
2022-10-22T09:57:06.533Z,225.70
2022-10-22T09:58:06.518Z,465.90
2022-10-22T09:59:06.508Z,247.10
2022-10-22T10:00:06.491Z,131.40
2022-10-22T10:01:06.489Z,144.80
2022-10-22T10:02:19.656Z,97.70
2022-10-22T10:03:07.505Z,75.70
2022-10-22T10:04:09.674Z,33.50
2022-10-22T10:05:06.443Z,25.60
2022-10-22T10:06:06.431Z,23.80
2022-10-22T10:07:06.391Z,55.10
2022-10-22T10:08:06.392Z,18.50
2022-10-22T10:09:06.455Z,27.70
2022-10-22T10:10:06.357Z,72.00
2022-10-22T10:11:06.446Z,63.90
2022-10-22T10:12:06.331Z,21.00
2022-10-22T10:13:06.313Z,17.60
2022-10-22T10:14:06.294Z,75.80
2022-10-22T10:15:06.293Z,104.40
2022-10-22T10:16:06.284Z,62.50
2022-10-22T10:17:06.255Z,15.00
2022-10-22T10:18:06.245Z,6.50
2022-10-22T10:19:06.265Z,17.20
2022-10-22T10:20:06.237Z,13.70
2022-10-22T10:21:06.234Z,13.30
2022-10-22T10:22:06.197Z,14.60
2022-10-22T10:23:06.177Z,9.80
2022-10-22T10:24:06.174Z,17.20
2022-10-22T10:25:06.181Z,9.50
2022-10-22T10:26:06.168Z,8.70
2022-10-22T10:27:06.127Z,16.20
2022-10-22T10:28:06.109Z,14.00
2022-10-22T10:29:06.106Z,9.90
2022-10-22T10:30:06.099Z,3.50
2022-10-22T10:31:06.092Z,11.30
2022-10-22T10:32:06.061Z,2.10
2022-10-22T10:33:06.055Z,8.70
2022-10-22T10:34:06.030Z,12.00
2022-10-22T10:35:06.060Z,11.90
2022-10-22T10:36:06.032Z,7.30
2022-10-22T10:37:05.995Z,7.00
2022-10-22T10:38:05.985Z,12.60
2022-10-22T10:39:05.973Z,4.60
2022-10-22T10:40:05.959Z,6.30
2022-10-22T10:41:05.963Z,4.70
2022-10-22T10:42:05.912Z,5.20
2022-10-22T10:43:05.913Z,8.90
2022-10-22T10:44:05.893Z,5.60
2022-10-22T10:45:05.898Z,8.40
2022-10-22T10:46:05.900Z,1.90
2022-10-22T10:47:05.981Z,1.50
2022-10-22T10:48:05.852Z,7.60
2022-10-22T10:49:05.827Z,4.00
2022-10-22T10:50:05.828Z,1.40
2022-10-22T10:51:05.819Z,2.50
2022-10-22T10:52:05.793Z,1.90
2022-10-22T10:53:05.779Z,6.20
2022-10-22T10:54:05.763Z,1.90
2022-10-22T10:55:06.398Z,1.70
2022-10-22T10:56:05.738Z,1.70
2022-10-22T10:57:05.721Z,6.50
2022-10-22T10:58:05.709Z,4.10
2022-10-22T10:59:05.705Z,7.00
2022-10-22T11:00:05.689Z,1.80
2022-10-22T11:01:05.671Z,4.30
2022-10-22T11:02:06.601Z,1.70
2022-10-22T11:03:05.643Z,2.30
2022-10-22T11:04:05.690Z,5.70
2022-10-22T11:05:05.639Z,3.80
2022-10-22T11:06:05.601Z,2.20
2022-10-22T11:07:16.728Z,9.00
2022-10-22T11:08:06.580Z,1.80
2022-10-22T11:09:05.680Z,2.90
2022-10-22T11:10:05.602Z,8.30
2022-10-22T11:11:05.612Z,2.20
2022-10-22T11:12:05.513Z,3.50
2022-10-22T11:13:05.514Z,10.50
2022-10-22T11:14:05.522Z,3.10
2022-10-22T11:15:05.487Z,2.90
2022-10-22T11:16:05.483Z,4.10
2022-10-22T11:17:05.453Z,4.20
2022-10-22T11:18:05.442Z,5.60
2022-10-22T11:19:05.434Z,1.60
2022-10-22T11:20:05.415Z,3.70
2022-10-22T11:21:05.398Z,7.40
2022-10-22T11:22:05.384Z,4.30
2022-10-22T11:23:21.797Z,1.40
2022-10-22T11:24:06.419Z,7.80
2022-10-22T11:25:05.355Z,7.40
2022-10-22T11:26:05.358Z,5.90
2022-10-22T11:27:05.329Z,2.30
2022-10-22T11:28:10.358Z,2.60
2022-10-22T11:29:06.309Z,1.60
2022-10-22T11:30:05.286Z,9.00
2022-10-22T11:31:05.269Z,6.10
2022-10-22T11:32:05.253Z,1.40
2022-10-22T11:33:05.249Z,1.40
2022-10-22T11:34:28.469Z,3.40
2022-10-22T11:35:06.222Z,2.70
2022-10-22T11:36:05.204Z,5.60
2022-10-22T11:37:05.208Z,3.30
2022-10-22T11:38:05.173Z,3.00
2022-10-22T11:39:05.175Z,1.30
2022-10-22T11:40:05.143Z,3.20
2022-10-22T11:41:05.143Z,7.00
2022-10-22T11:42:05.137Z,3.50
2022-10-22T11:43:05.105Z,1.40
2022-10-22T11:44:05.113Z,1.20
2022-10-22T11:45:05.088Z,2.60
2022-10-22T11:46:05.066Z,1.00
2022-10-22T11:47:05.063Z,1.30
2022-10-22T11:48:05.038Z,1.30
2022-10-22T11:49:05.047Z,0.90
2022-10-22T11:50:05.058Z,1.00
2022-10-22T11:51:05.038Z,1.30
2022-10-22T11:52:05.176Z,1.10
2022-10-22T11:53:05.090Z,1.00
2022-10-22T11:54:04.988Z,4.90
2022-10-22T11:55:04.961Z,0.90
2022-10-22T11:56:04.952Z,6.10
2022-10-22T11:57:04.939Z,12.00
2022-10-22T11:58:04.910Z,0.90
2022-10-22T11:59:04.929Z,2.60
2022-10-22T12:00:04.881Z,2.20
2022-10-22T12:01:04.871Z,1.10
2022-10-22T12:02:04.855Z,4.10
2022-10-22T12:03:04.855Z,0.90
2022-10-22T12:04:04.853Z,10.40
2022-10-22T12:05:04.815Z,0.80
2022-10-22T12:06:04.806Z,1.20
2022-10-22T12:07:04.789Z,1.20
2022-10-22T12:08:04.773Z,4.00
2022-10-22T12:09:04.908Z,1.60
2022-10-22T12:10:04.786Z,0.70
2022-10-22T12:11:04.737Z,0.80
2022-10-22T12:12:04.955Z,8.30
2022-10-22T12:13:04.716Z,0.90
2022-10-22T12:14:04.721Z,5.30
2022-10-22T12:15:04.688Z,2.10
2022-10-22T12:16:04.685Z,0.80
2022-10-22T12:17:04.659Z,4.20
2022-10-22T12:18:04.684Z,3.60
2022-10-22T12:19:04.640Z,0.90
2022-10-22T12:20:04.618Z,12.40
2022-10-22T12:21:04.607Z,3.20
2022-10-22T12:22:04.589Z,7.20
2022-10-22T12:23:04.569Z,7.60
2022-10-22T12:24:04.569Z,6.50
2022-10-22T12:25:04.549Z,7.10
2022-10-22T12:26:04.531Z,1.00
2022-10-22T12:27:04.780Z,1.00
2022-10-22T12:28:04.528Z,2.90
2022-10-22T12:29:04.498Z,4.80
2022-10-22T12:30:04.481Z,6.70
2022-10-22T12:31:04.472Z,3.00
2022-10-22T12:32:04.468Z,1.50
2022-10-22T12:33:04.455Z,5.10
2022-10-22T12:34:04.431Z,10.60
2022-10-22T12:35:04.414Z,1.80
2022-10-22T12:36:04.403Z,1.30
2022-10-22T12:37:04.404Z,1.10
2022-10-22T12:38:04.389Z,1.30
2022-10-22T12:39:04.360Z,1.00
2022-10-22T12:40:04.345Z,5.10
2022-10-22T12:41:04.335Z,4.70
2022-10-22T12:42:04.315Z,1.20
2022-10-22T12:43:04.352Z,1.10
2022-10-22T12:44:04.296Z,0.90
2022-10-22T12:45:04.287Z,1.00
2022-10-22T12:46:04.274Z,4.00
2022-10-22T12:47:04.258Z,5.90
2022-10-22T12:48:04.257Z,4.60
2022-10-22T12:49:04.229Z,1.00
2022-10-22T12:50:04.219Z,0.90
2022-10-22T12:51:04.216Z,2.70
2022-10-22T12:52:04.430Z,1.20
2022-10-22T12:53:04.183Z,5.00
2022-10-22T12:54:04.157Z,4.30
2022-10-22T12:55:04.151Z,3.10
2022-10-22T12:56:04.134Z,1.40
2022-10-22T12:57:04.125Z,1.30
2022-10-22T12:58:04.111Z,4.80
2022-10-22T12:59:04.112Z,2.00
2022-10-22T13:00:04.098Z,6.90
2022-10-22T13:01:04.152Z,2.40
2022-10-22T13:02:06.801Z,1.10
2022-10-22T13:03:04.053Z,0.90
2022-10-22T13:04:04.024Z,1.20
2022-10-22T13:05:04.014Z,8.30
2022-10-22T13:06:04.016Z,3.40
2022-10-22T13:07:03.985Z,9.20
2022-10-22T13:08:03.999Z,2.90
2022-10-22T13:09:04.038Z,7.80
2022-10-22T13:10:03.945Z,1.00
2022-10-22T13:11:04.893Z,3.30
2022-10-22T13:12:03.927Z,1.10
2022-10-22T13:13:03.923Z,1.70
2022-10-22T13:14:03.898Z,1.10
2022-10-22T13:15:03.887Z,2.00
2022-10-22T13:16:03.868Z,14.80
2022-10-22T13:17:03.859Z,2.80
2022-10-22T13:18:03.851Z,6.30
2022-10-22T13:19:03.829Z,3.70
2022-10-22T13:20:03.843Z,1.10
2022-10-22T13:21:03.809Z,3.40
2022-10-22T13:22:03.810Z,3.30
2022-10-22T13:23:03.780Z,8.20
2022-10-22T13:24:03.760Z,1.60
2022-10-22T13:25:03.774Z,4.30
2022-10-22T13:26:03.975Z,3.40
2022-10-22T13:27:03.749Z,1.90
2022-10-22T13:28:03.733Z,3.00
2022-10-22T13:29:03.713Z,5.80
2022-10-22T13:30:03.737Z,2.50
2022-10-22T13:31:03.689Z,2.40
2022-10-22T13:32:03.658Z,2.90
2022-10-22T13:33:03.693Z,7.70
2022-10-22T13:34:06.670Z,4.80
2022-10-22T13:35:04.615Z,1.50
2022-10-22T13:36:03.608Z,1.70
2022-10-22T13:37:03.608Z,2.80
2022-10-22T13:38:03.595Z,1.20
2022-10-22T13:39:03.571Z,7.70
2022-10-22T13:40:05.636Z,3.80
2022-10-22T13:41:04.537Z,4.10
2022-10-22T13:42:03.538Z,1.80
2022-10-22T13:43:04.457Z,1.40
2022-10-22T13:44:03.508Z,1.30
2022-10-22T13:45:04.436Z,3.20
2022-10-22T13:46:03.479Z,1.30
2022-10-22T13:47:03.459Z,1.30
2022-10-22T13:48:03.450Z,1.60
2022-10-22T13:49:03.439Z,1.10
2022-10-22T13:50:04.369Z,1.10
2022-10-22T13:51:03.401Z,1.90
2022-10-22T13:52:03.422Z,3.30
2022-10-22T13:53:03.372Z,2.50
2022-10-22T13:54:03.363Z,2.10
2022-10-22T13:55:03.354Z,2.70
2022-10-22T13:56:03.340Z,2.90
2022-10-22T13:57:03.323Z,3.40
2022-10-22T13:58:03.315Z,1.90
2022-10-22T13:59:03.306Z,1.30
2022-10-22T14:00:03.283Z,7.60
2022-10-22T14:01:03.335Z,8.20
2022-10-22T14:02:03.264Z,1.10
2022-10-22T14:03:03.246Z,1.30
2022-10-22T14:04:03.235Z,5.10
2022-10-22T14:05:03.245Z,1.80
2022-10-22T14:06:03.226Z,1.20
2022-10-22T14:07:03.985Z,4.70
2022-10-22T14:08:03.177Z,1.20
2022-10-22T14:09:03.298Z,1.30
2022-10-22T14:10:03.174Z,11.50
2022-10-22T14:11:03.136Z,3.00
2022-10-22T14:12:03.149Z,3.90
2022-10-22T14:13:03.107Z,8.10
2022-10-22T14:14:03.140Z,1.50
2022-10-22T14:15:03.084Z,7.00
2022-10-22T14:16:03.069Z,3.00
2022-10-22T14:17:03.059Z,2.20
2022-10-22T14:18:03.047Z,5.80
2022-10-22T14:19:03.020Z,5.10
2022-10-22T14:20:03.251Z,10.30
2022-10-22T14:21:03.001Z,1.30
2022-10-22T14:22:03.039Z,1.40
2022-10-22T14:23:02.970Z,3.20
2022-10-22T14:24:03.005Z,1.40
2022-10-22T14:25:02.952Z,2.50
2022-10-22T14:26:02.933Z,5.70
2022-10-22T14:27:02.927Z,1.30
2022-10-22T14:28:02.916Z,8.90
2022-10-22T14:29:11.481Z,1.40
2022-10-22T14:30:03.915Z,1.20
2022-10-22T14:31:02.874Z,3.00
2022-10-22T14:32:02.872Z,8.80
2022-10-22T14:33:02.835Z,1.10
2022-10-22T14:34:02.845Z,1.00
2022-10-22T14:35:02.818Z,4.00
2022-10-22T14:36:02.820Z,3.30
2022-10-22T14:37:02.787Z,9.70
2022-10-22T14:38:02.779Z,2.50
2022-10-22T14:39:02.757Z,3.90
2022-10-22T14:40:02.762Z,3.50
2022-10-22T14:41:02.738Z,1.30
2022-10-22T14:42:02.735Z,6.60
2022-10-22T14:43:02.712Z,1.30
2022-10-22T14:44:02.699Z,3.50
2022-10-22T14:45:02.679Z,1.20
2022-10-22T14:46:02.679Z,1.70
2022-10-22T14:47:02.661Z,10.30
2022-10-22T14:48:02.647Z,9.00
2022-10-22T14:49:02.625Z,5.10
2022-10-22T14:50:02.664Z,7.80
2022-10-22T14:51:02.607Z,1.20
2022-10-22T14:52:02.605Z,1.50
2022-10-22T14:53:02.572Z,7.90
2022-10-22T14:54:02.578Z,1.30
2022-10-22T14:55:02.552Z,6.30
2022-10-22T14:56:02.543Z,5.40
2022-10-22T14:57:02.524Z,3.90
2022-10-22T14:58:02.515Z,9.40
2022-10-22T14:59:02.506Z,1.30
2022-10-22T15:00:02.497Z,1.30
2022-10-22T15:01:02.542Z,4.80
2022-10-22T15:02:02.465Z,5.20
2022-10-22T15:03:04.339Z,1.50
2022-10-22T15:04:02.434Z,1.60
2022-10-22T15:05:02.418Z,5.50
2022-10-22T15:06:02.406Z,1.50
2022-10-22T15:07:02.388Z,1.60
2022-10-22T15:08:02.376Z,1.50
2022-10-22T15:09:02.418Z,6.70
2022-10-22T15:10:02.367Z,3.70
2022-10-22T15:11:02.339Z,6.50
2022-10-22T15:12:02.328Z,7.20
2022-10-22T15:13:02.307Z,3.60
2022-10-22T15:14:02.301Z,8.10
2022-10-22T15:15:02.289Z,2.40
2022-10-22T15:16:02.279Z,7.90
2022-10-22T15:17:03.205Z,5.00
2022-10-22T15:18:02.241Z,3.00
2022-10-22T15:19:02.231Z,3.80
2022-10-22T15:20:02.223Z,3.90
2022-10-22T15:21:02.202Z,2.90
2022-10-22T15:22:02.192Z,2.80
2022-10-22T15:23:02.172Z,11.30
2022-10-22T15:24:02.163Z,2.70
2022-10-22T15:25:02.153Z,2.60
2022-10-22T15:26:02.133Z,2.20
2022-10-22T15:27:02.121Z,3.30
2022-10-22T15:28:09.477Z,2.20
2022-10-22T15:29:03.095Z,2.20
2022-10-22T15:31:02.102Z,4.50
2022-10-22T15:32:02.057Z,2.10
2022-10-22T15:33:02.100Z,6.50
2022-10-22T15:34:02.164Z,2.30
2022-10-22T15:35:02.035Z,4.60
2022-10-22T15:36:01.997Z,1.70
2022-10-22T15:37:01.997Z,3.10
2022-10-22T15:38:01.977Z,4.50
2022-10-22T15:39:01.994Z,3.10
2022-10-22T15:40:01.988Z,1.80
2022-10-22T15:41:04.564Z,4.50
2022-10-22T15:42:01.929Z,8.10
2022-10-22T15:43:01.921Z,10.10
2022-10-22T15:44:01.918Z,7.40
2022-10-22T15:45:01.920Z,2.60
2022-10-22T15:46:01.872Z,5.90
2022-10-22T15:47:01.864Z,7.10
2022-10-22T15:48:01.863Z,9.50
2022-10-22T15:49:01.870Z,5.20
2022-10-22T15:50:01.823Z,8.20
2022-10-22T15:51:01.802Z,5.60
2022-10-22T15:52:01.791Z,11.60
2022-10-22T15:53:01.773Z,5.40
2022-10-22T15:54:03.548Z,13.30
2022-10-22T15:55:01.790Z,8.70
2022-10-22T15:56:01.737Z,14.00
2022-10-22T15:57:01.714Z,5.20
2022-10-22T15:58:04.154Z,10.90
2022-10-22T15:59:01.700Z,3.10
2022-10-22T16:00:01.695Z,5.10
2022-10-22T16:01:01.749Z,5.30
2022-10-22T16:02:01.680Z,6.40
2022-10-22T16:03:01.671Z,4.30
2022-10-22T16:04:01.637Z,8.00
2022-10-22T16:05:01.619Z,4.90
2022-10-22T16:06:01.597Z,7.10
2022-10-22T16:07:01.588Z,7.00
2022-10-22T16:08:01.607Z,5.20
2022-10-22T16:09:01.635Z,7.70
2022-10-22T16:10:02.525Z,3.70
2022-10-22T16:11:01.542Z,5.30
2022-10-22T16:12:01.543Z,3.40
2022-10-22T16:13:01.533Z,2.70
2022-10-22T16:14:01.495Z,6.60
2022-10-22T16:15:01.491Z,2.90
2022-10-22T16:16:01.460Z,6.50
2022-10-22T16:17:01.441Z,8.20
2022-10-22T16:18:01.441Z,4.10
2022-10-22T16:19:01.422Z,2.40
2022-10-22T16:20:01.541Z,4.90
2022-10-22T16:21:01.391Z,4.30
2022-10-22T16:22:01.758Z,2.20
2022-10-22T16:23:01.363Z,3.60
2022-10-22T16:24:06.008Z,2.70
2022-10-22T16:25:02.614Z,2.00
2022-10-22T16:26:01.329Z,8.80
2022-10-22T16:27:01.322Z,2.50
2022-10-22T16:28:01.306Z,10.20
2022-10-22T16:29:01.294Z,3.60
2022-10-22T16:30:01.285Z,9.70
2022-10-22T16:31:01.256Z,2.20
2022-10-22T16:32:01.254Z,3.30
2022-10-22T16:33:03.371Z,10.50
2022-10-22T16:34:01.237Z,8.30
2022-10-22T16:35:01.207Z,6.70
2022-10-22T16:36:01.201Z,4.70
2022-10-22T16:37:01.178Z,10.20
2022-10-22T16:38:01.163Z,4.50
2022-10-22T16:39:01.158Z,2.20
2022-10-22T16:40:04.431Z,18.20
2022-10-22T16:41:02.129Z,13.30
2022-10-22T16:42:01.118Z,3.60
2022-10-22T16:43:01.089Z,12.80
2022-10-22T16:44:01.091Z,5.10
2022-10-22T16:45:01.170Z,4.10
2022-10-22T16:46:01.060Z,7.50
2022-10-22T16:47:01.065Z,4.30
2022-10-22T16:48:01.031Z,3.70
2022-10-22T16:49:01.021Z,10.60
2022-10-22T16:50:01.014Z,10.40
2022-10-22T16:51:00.991Z,5.40
2022-10-22T16:52:00.989Z,9.00
2022-10-22T16:53:00.972Z,18.80
2022-10-22T16:54:00.974Z,13.80
2022-10-22T16:55:00.933Z,9.70
2022-10-22T16:56:00.924Z,7.50
2022-10-22T16:57:00.913Z,6.60
2022-10-22T16:58:00.906Z,6.20
2022-10-22T16:59:00.898Z,9.10
2022-10-22T17:00:00.874Z,7.40
2022-10-22T17:01:00.913Z,15.30
2022-10-22T17:02:00.920Z,6.60
2022-10-22T17:03:00.825Z,8.00
2022-10-22T17:04:00.827Z,10.70
2022-10-22T17:05:00.796Z,11.50
2022-10-22T17:06:00.786Z,13.50
2022-10-22T17:07:00.775Z,14.30
2022-10-22T17:08:00.768Z,18.40
2022-10-22T17:09:00.855Z,17.70
2022-10-22T17:10:00.737Z,20.20
2022-10-22T17:11:00.722Z,15.90
2022-10-22T17:12:00.716Z,8.70
2022-10-22T17:13:00.688Z,14.40
2022-10-22T17:14:01.646Z,8.60
2022-10-22T17:15:00.669Z,10.70
2022-10-22T17:16:00.666Z,10.20
2022-10-22T17:17:00.660Z,18.00
2022-10-22T17:18:00.867Z,17.10
2022-10-22T17:19:00.670Z,9.80
2022-10-22T17:20:00.609Z,10.50
2022-10-22T17:21:00.580Z,11.80
2022-10-22T23:53:57.874Z,15.90
